sensor_id;sensor_type;location;lat;lon;timestamp;P1;durP1;ratioP1;P2;durP2;ratioP2
70026;SDS011;57506;50.092;15.804;2023-10-08T00:01:52;24.40;;;22.90;;
70026;SDS011;57506;50.092;15.804;2023-10-08T00:04:20;28.05;;;23.38;;
70026;SDS011;57506;50.092;15.804;2023-10-08T00:06:46;25.55;;;23.75;;
70026;SDS011;57506;50.092;15.804;2023-10-08T00:09:12;25.02;;;23.40;;
70026;SDS011;57506;50.092;15.804;2023-10-08T00:11:40;26.37;;;24.37;;
70026;SDS011;57506;50.092;15.804;2023-10-08T00:14:06;25.55;;;23.85;;
70026;SDS011;57506;50.092;15.804;2023-10-08T00:16:35;25.13;;;23.52;;
70026;SDS011;57506;50.092;15.804;2023-10-08T00:19:05;24.45;;;22.95;;
70026;SDS011;57506;50.092;15.804;2023-10-08T00:21:34;24.92;;;23.38;;
70026;SDS011;57506;50.092;15.804;2023-10-08T00:24:03;25.20;;;23.50;;
70026;SDS011;57506;50.092;15.804;2023-10-08T00:26:34;23.95;;;22.20;;
70026;SDS011;57506;50.092;15.804;2023-10-08T00:29:05;24.88;;;23.17;;
70026;SDS011;57506;50.092;15.804;2023-10-08T00:31:40;25.35;;;23.65;;
70026;SDS011;57506;50.092;15.804;2023-10-08T00:34:06;24.10;;;22.60;;
70026;SDS011;57506;50.092;15.804;2023-10-08T00:36:39;23.90;;;22.23;;
70026;SDS011;57506;50.092;15.804;2023-10-08T00:39:06;25.85;;;24.05;;
70026;SDS011;57506;50.092;15.804;2023-10-08T00:41:48;23.40;;;21.83;;
70026;SDS011;57506;50.092;15.804;2023-10-08T00:44:15;25.17;;;23.58;;
70026;SDS011;57506;50.092;15.804;2023-10-08T00:46:47;23.30;;;21.90;;
70026;SDS011;57506;50.092;15.804;2023-10-08T00:49:13;23.33;;;21.92;;
70026;SDS011;57506;50.092;15.804;2023-10-08T00:51:43;24.88;;;22.88;;
70026;SDS011;57506;50.092;15.804;2023-10-08T00:54:10;23.30;;;21.70;;
70026;SDS011;57506;50.092;15.804;2023-10-08T00:56:42;23.80;;;22.38;;
70026;SDS011;57506;50.092;15.804;2023-10-08T00:59:11;23.70;;;22.20;;
70026;SDS011;57506;50.092;15.804;2023-10-08T01:01:44;23.58;;;22.08;;
70026;SDS011;57506;50.092;15.804;2023-10-08T01:04:20;24.73;;;23.13;;
70026;SDS011;57506;50.092;15.804;2023-10-08T01:06:53;23.23;;;21.77;;
70026;SDS011;57506;50.092;15.804;2023-10-08T01:09:38;24.70;;;23.20;;
70026;SDS011;57506;50.092;15.804;2023-10-08T01:14:54;22.70;;;21.30;;
70026;SDS011;57506;50.092;15.804;2023-10-08T01:17:20;23.50;;;22.10;;
70026;SDS011;57506;50.092;15.804;2023-10-08T01:19:53;24.60;;;23.10;;
70026;SDS011;57506;50.092;15.804;2023-10-08T01:22:22;24.25;;;22.75;;
70026;SDS011;57506;50.092;15.804;2023-10-08T01:24:49;22.50;;;21.10;;
70026;SDS011;57506;50.092;15.804;2023-10-08T01:27:16;23.83;;;22.23;;
70026;SDS011;57506;50.092;15.804;2023-10-08T01:29:47;24.38;;;22.88;;
70026;SDS011;57506;50.092;15.804;2023-10-08T01:32:17;25.02;;;23.42;;
70026;SDS011;57506;50.092;15.804;2023-10-08T01:34:44;24.20;;;22.60;;
70026;SDS011;57506;50.092;15.804;2023-10-08T01:37:15;23.10;;;21.60;;
70026;SDS011;57506;50.092;15.804;2023-10-08T01:39:42;23.15;;;21.75;;
70026;SDS011;57506;50.092;15.804;2023-10-08T01:42:11;25.88;;;24.10;;
70026;SDS011;57506;50.092;15.804;2023-10-08T01:44:45;24.40;;;22.85;;
70026;SDS011;57506;50.092;15.804;2023-10-08T01:47:12;24.85;;;23.25;;
70026;SDS011;57506;50.092;15.804;2023-10-08T01:49:39;22.60;;;21.10;;
70026;SDS011;57506;50.092;15.804;2023-10-08T01:52:05;23.58;;;22.08;;
70026;SDS011;57506;50.092;15.804;2023-10-08T01:54:38;25.90;;;24.23;;
70026;SDS011;57506;50.092;15.804;2023-10-08T01:57:04;26.48;;;24.48;;
70026;SDS011;57506;50.092;15.804;2023-10-08T01:59:31;24.80;;;23.10;;
70026;SDS011;57506;50.092;15.804;2023-10-08T02:01:57;25.42;;;23.77;;
70026;SDS011;57506;50.092;15.804;2023-10-08T02:04:23;25.45;;;23.85;;
70026;SDS011;57506;50.092;15.804;2023-10-08T02:06:50;25.27;;;23.57;;
70026;SDS011;57506;50.092;15.804;2023-10-08T02:09:15;26.17;;;24.48;;
70026;SDS011;57506;50.092;15.804;2023-10-08T02:11:47;25.30;;;23.70;;
70026;SDS011;57506;50.092;15.804;2023-10-08T02:14:21;23.08;;;21.58;;
70026;SDS011;57506;50.092;15.804;2023-10-08T02:16:48;23.83;;;22.33;;
70026;SDS011;57506;50.092;15.804;2023-10-08T02:19:14;24.73;;;23.23;;
70026;SDS011;57506;50.092;15.804;2023-10-08T02:21:43;23.88;;;22.05;;
70026;SDS011;57506;50.092;15.804;2023-10-08T02:24:11;25.20;;;23.60;;
70026;SDS011;57506;50.092;15.804;2023-10-08T02:26:38;25.58;;;23.73;;
70026;SDS011;57506;50.092;15.804;2023-10-08T02:29:04;26.63;;;23.58;;
70026;SDS011;57506;50.092;15.804;2023-10-08T02:31:41;25.20;;;23.60;;
70026;SDS011;57506;50.092;15.804;2023-10-08T02:34:08;24.17;;;22.67;;
70026;SDS011;57506;50.092;15.804;2023-10-08T02:36:38;25.58;;;23.98;;
70026;SDS011;57506;50.092;15.804;2023-10-08T02:39:05;25.52;;;23.60;;
70026;SDS011;57506;50.092;15.804;2023-10-08T02:41:42;25.75;;;24.13;;
70026;SDS011;57506;50.092;15.804;2023-10-08T02:44:11;23.67;;;22.17;;
70026;SDS011;57506;50.092;15.804;2023-10-08T02:46:41;24.73;;;23.13;;
70026;SDS011;57506;50.092;15.804;2023-10-08T02:49:17;25.20;;;23.55;;
70026;SDS011;57506;50.092;15.804;2023-10-08T02:51:53;24.25;;;22.73;;
70026;SDS011;57506;50.092;15.804;2023-10-08T02:54:21;25.13;;;23.48;;
70026;SDS011;57506;50.092;15.804;2023-10-08T02:56:56;24.43;;;22.93;;
70026;SDS011;57506;50.092;15.804;2023-10-08T02:59:29;26.08;;;24.27;;
70026;SDS011;57506;50.092;15.804;2023-10-08T03:02:05;25.10;;;23.50;;
70026;SDS011;57506;50.092;15.804;2023-10-08T03:04:44;26.83;;;24.65;;
70026;SDS011;57506;50.092;15.804;2023-10-08T03:07:11;24.45;;;22.95;;
70026;SDS011;57506;50.092;15.804;2023-10-08T03:09:47;25.17;;;23.67;;
70026;SDS011;57506;50.092;15.804;2023-10-08T03:12:15;23.50;;;22.00;;
70026;SDS011;57506;50.092;15.804;2023-10-08T03:14:42;24.27;;;22.77;;
70026;SDS011;57506;50.092;15.804;2023-10-08T03:17:28;23.48;;;22.02;;
70026;SDS011;57506;50.092;15.804;2023-10-08T03:19:55;24.23;;;22.73;;
70026;SDS011;57506;50.092;15.804;2023-10-08T03:22:41;24.23;;;22.73;;
70026;SDS011;57506;50.092;15.804;2023-10-08T03:25:10;23.02;;;21.63;;
70026;SDS011;57506;50.092;15.804;2023-10-08T03:27:42;26.80;;;24.85;;
70026;SDS011;57506;50.092;15.804;2023-10-08T03:30:08;25.17;;;23.58;;
70026;SDS011;57506;50.092;15.804;2023-10-08T03:32:39;23.88;;;22.35;;
70026;SDS011;57506;50.092;15.804;2023-10-08T03:35:08;23.27;;;21.87;;
70026;SDS011;57506;50.092;15.804;2023-10-08T03:37:38;24.15;;;22.73;;
70026;SDS011;57506;50.092;15.804;2023-10-08T03:40:11;24.50;;;22.90;;
70026;SDS011;57506;50.092;15.804;2023-10-08T03:43:07;24.27;;;22.60;;
70026;SDS011;57506;50.092;15.804;2023-10-08T03:45:44;24.08;;;22.48;;
70026;SDS011;57506;50.092;15.804;2023-10-08T03:48:16;25.30;;;23.70;;
70026;SDS011;57506;50.092;15.804;2023-10-08T03:50:42;26.10;;;24.27;;
70026;SDS011;57506;50.092;15.804;2023-10-08T03:53:08;25.88;;;24.25;;
70026;SDS011;57506;50.092;15.804;2023-10-08T03:55:40;26.83;;;24.92;;
70026;SDS011;57506;50.092;15.804;2023-10-08T03:58:09;25.50;;;23.83;;
70026;SDS011;57506;50.092;15.804;2023-10-08T04:00:42;24.15;;;22.65;;
70026;SDS011;57506;50.092;15.804;2023-10-08T04:03:10;23.85;;;22.25;;
70026;SDS011;57506;50.092;15.804;2023-10-08T04:05:37;24.13;;;22.70;;
70026;SDS011;57506;50.092;15.804;2023-10-08T04:08:22;22.70;;;21.30;;
70026;SDS011;57506;50.092;15.804;2023-10-08T04:11:05;24.10;;;22.50;;
70026;SDS011;57506;50.092;15.804;2023-10-08T04:13:34;25.67;;;23.60;;
70026;SDS011;57506;50.092;15.804;2023-10-08T04:16:04;24.35;;;22.55;;
70026;SDS011;57506;50.092;15.804;2023-10-08T04:18:31;24.48;;;22.88;;
70026;SDS011;57506;50.092;15.804;2023-10-08T04:20:57;24.30;;;22.70;;
70026;SDS011;57506;50.092;15.804;2023-10-08T04:23:30;24.45;;;22.52;;
70026;SDS011;57506;50.092;15.804;2023-10-08T04:25:55;23.67;;;22.25;;
70026;SDS011;57506;50.092;15.804;2023-10-08T04:28:22;24.42;;;22.75;;
70026;SDS011;57506;50.092;15.804;2023-10-08T04:30:52;24.92;;;22.85;;
70026;SDS011;57506;50.092;15.804;2023-10-08T04:33:18;25.57;;;23.47;;
70026;SDS011;57506;50.092;15.804;2023-10-08T04:35:45;25.48;;;23.67;;
70026;SDS011;57506;50.092;15.804;2023-10-08T04:38:18;26.85;;;23.63;;
70026;SDS011;57506;50.092;15.804;2023-10-08T04:40:47;24.73;;;23.00;;
70026;SDS011;57506;50.092;15.804;2023-10-08T04:43:18;25.35;;;23.65;;
70026;SDS011;57506;50.092;15.804;2023-10-08T04:45:50;24.50;;;22.85;;
70026;SDS011;57506;50.092;15.804;2023-10-08T04:48:16;25.95;;;24.02;;
70026;SDS011;57506;50.092;15.804;2023-10-08T04:50:46;24.08;;;22.40;;
70026;SDS011;57506;50.092;15.804;2023-10-08T04:53:16;22.97;;;21.53;;
70026;SDS011;57506;50.092;15.804;2023-10-08T04:55:42;22.35;;;20.95;;
70026;SDS011;57506;50.092;15.804;2023-10-08T04:58:13;22.60;;;21.20;;
70026;SDS011;57506;50.092;15.804;2023-10-08T05:00:46;23.60;;;22.10;;
70026;SDS011;57506;50.092;15.804;2023-10-08T05:03:24;22.08;;;20.77;;
70026;SDS011;57506;50.092;15.804;2023-10-08T05:05:57;22.00;;;20.70;;
70026;SDS011;57506;50.092;15.804;2023-10-08T05:08:31;23.92;;;22.52;;
70026;SDS011;57506;50.092;15.804;2023-10-08T05:11:23;21.25;;;19.95;;
70026;SDS011;57506;50.092;15.804;2023-10-08T05:14:11;21.77;;;20.37;;
70026;SDS011;57506;50.092;15.804;2023-10-08T05:17:00;21.42;;;20.13;;
70026;SDS011;57506;50.092;15.804;2023-10-08T05:19:36;20.88;;;19.58;;
70026;SDS011;57506;50.092;15.804;2023-10-08T05:22:27;21.38;;;20.08;;
70026;SDS011;57506;50.092;15.804;2023-10-08T05:24:53;21.10;;;19.80;;
70026;SDS011;57506;50.092;15.804;2023-10-08T05:27:38;21.97;;;20.67;;
70026;SDS011;57506;50.092;15.804;2023-10-08T05:30:14;21.45;;;20.15;;
70026;SDS011;57506;50.092;15.804;2023-10-08T05:33:03;21.30;;;20.00;;
70026;SDS011;57506;50.092;15.804;2023-10-08T05:35:41;20.92;;;19.63;;
70026;SDS011;57506;50.092;15.804;2023-10-08T05:38:08;21.13;;;19.83;;
70026;SDS011;57506;50.092;15.804;2023-10-08T05:40:52;21.23;;;19.93;;
70026;SDS011;57506;50.092;15.804;2023-10-08T05:43:21;21.40;;;20.10;;
70026;SDS011;57506;50.092;15.804;2023-10-08T05:46:07;21.70;;;20.40;;
70026;SDS011;57506;50.092;15.804;2023-10-08T05:51:32;21.55;;;20.25;;
70026;SDS011;57506;50.092;15.804;2023-10-08T05:54:23;19.90;;;18.70;;
70026;SDS011;57506;50.092;15.804;2023-10-08T05:57:05;20.98;;;19.67;;
70026;SDS011;57506;50.092;15.804;2023-10-08T05:59:34;20.77;;;19.48;;
70026;SDS011;57506;50.092;15.804;2023-10-08T06:02:19;20.73;;;19.42;;
70026;SDS011;57506;50.092;15.804;2023-10-08T06:05:11;20.77;;;19.45;;
70026;SDS011;57506;50.092;15.804;2023-10-08T06:07:58;21.03;;;19.73;;
70026;SDS011;57506;50.092;15.804;2023-10-08T06:10:36;20.70;;;19.40;;
70026;SDS011;57506;50.092;15.804;2023-10-08T06:15:55;21.43;;;20.13;;
70026;SDS011;57506;50.092;15.804;2023-10-08T06:21:09;20.67;;;19.38;;
70026;SDS011;57506;50.092;15.804;2023-10-08T06:23:37;19.75;;;18.55;;
70026;SDS011;57506;50.092;15.804;2023-10-08T06:26:07;20.58;;;19.27;;
70026;SDS011;57506;50.092;15.804;2023-10-08T06:28:35;20.17;;;18.97;;
70026;SDS011;57506;50.092;15.804;2023-10-08T06:31:02;20.13;;;18.92;;
70026;SDS011;57506;50.092;15.804;2023-10-08T06:33:32;20.10;;;18.90;;
70026;SDS011;57506;50.092;15.804;2023-10-08T06:36:01;20.80;;;19.50;;
70026;SDS011;57506;50.092;15.804;2023-10-08T06:38:36;21.33;;;19.92;;
70026;SDS011;57506;50.092;15.804;2023-10-08T06:41:04;20.57;;;19.27;;
70026;SDS011;57506;50.092;15.804;2023-10-08T06:43:42;20.30;;;19.10;;
70026;SDS011;57506;50.092;15.804;2023-10-08T06:46:18;20.35;;;19.15;;
70026;SDS011;57506;50.092;15.804;2023-10-08T06:48:47;20.48;;;19.20;;
70026;SDS011;57506;50.092;15.804;2023-10-08T06:51:14;20.92;;;19.63;;
70026;SDS011;57506;50.092;15.804;2023-10-08T06:53:44;19.53;;;18.33;;
70026;SDS011;57506;50.092;15.804;2023-10-08T06:56:13;20.00;;;18.80;;
70026;SDS011;57506;50.092;15.804;2023-10-08T06:58:40;19.77;;;18.58;;
70026;SDS011;57506;50.092;15.804;2023-10-08T07:01:21;20.73;;;19.42;;
70026;SDS011;57506;50.092;15.804;2023-10-08T07:03:47;20.35;;;19.15;;
70026;SDS011;57506;50.092;15.804;2023-10-08T07:06:17;20.17;;;18.97;;
70026;SDS011;57506;50.092;15.804;2023-10-08T07:08:51;19.40;;;18.20;;
70026;SDS011;57506;50.092;15.804;2023-10-08T07:11:21;19.60;;;18.40;;
70026;SDS011;57506;50.092;15.804;2023-10-08T07:13:48;20.20;;;19.00;;
70026;SDS011;57506;50.092;15.804;2023-10-08T07:16:15;19.90;;;18.70;;
70026;SDS011;57506;50.092;15.804;2023-10-08T07:18:43;20.63;;;19.33;;
70026;SDS011;57506;50.092;15.804;2023-10-08T07:21:20;20.00;;;18.80;;
70026;SDS011;57506;50.092;15.804;2023-10-08T07:23:57;20.08;;;18.88;;
70026;SDS011;57506;50.092;15.804;2023-10-08T07:26:26;20.00;;;18.80;;
70026;SDS011;57506;50.092;15.804;2023-10-08T07:29:01;19.67;;;18.48;;
70026;SDS011;57506;50.092;15.804;2023-10-08T07:31:33;20.57;;;19.27;;
70026;SDS011;57506;50.092;15.804;2023-10-08T07:34:01;19.77;;;18.58;;
70026;SDS011;57506;50.092;15.804;2023-10-08T07:36:47;20.38;;;19.13;;
70026;SDS011;57506;50.092;15.804;2023-10-08T07:39:14;19.83;;;18.63;;
70026;SDS011;57506;50.092;15.804;2023-10-08T07:41:49;19.88;;;18.67;;
70026;SDS011;57506;50.092;15.804;2023-10-08T07:44:15;19.50;;;18.30;;
70026;SDS011;57506;50.092;15.804;2023-10-08T07:46:46;20.00;;;18.80;;
70026;SDS011;57506;50.092;15.804;2023-10-08T07:49:25;19.70;;;18.50;;
70026;SDS011;57506;50.092;15.804;2023-10-08T07:51:51;19.60;;;18.40;;
70026;SDS011;57506;50.092;15.804;2023-10-08T07:54:18;20.03;;;18.83;;
70026;SDS011;57506;50.092;15.804;2023-10-08T07:56:47;19.05;;;17.85;;
70026;SDS011;57506;50.092;15.804;2023-10-08T07:59:13;19.55;;;18.35;;
70026;SDS011;57506;50.092;15.804;2023-10-08T08:01:41;20.42;;;19.13;;
70026;SDS011;57506;50.092;15.804;2023-10-08T08:04:09;19.63;;;18.43;;
70026;SDS011;57506;50.092;15.804;2023-10-08T08:06:36;21.30;;;20.00;;
70026;SDS011;57506;50.092;15.804;2023-10-08T08:09:03;19.52;;;18.33;;
70026;SDS011;57506;50.092;15.804;2023-10-08T08:11:43;19.88;;;18.67;;
70026;SDS011;57506;50.092;15.804;2023-10-08T08:14:11;20.67;;;19.38;;
70026;SDS011;57506;50.092;15.804;2023-10-08T08:16:37;21.77;;;20.43;;
70026;SDS011;57506;50.092;15.804;2023-10-08T08:19:03;20.73;;;19.42;;
70026;SDS011;57506;50.092;15.804;2023-10-08T08:21:28;21.07;;;19.77;;
70026;SDS011;57506;50.092;15.804;2023-10-08T08:23:55;20.80;;;19.50;;
70026;SDS011;57506;50.092;15.804;2023-10-08T08:26:29;20.70;;;19.40;;
70026;SDS011;57506;50.092;15.804;2023-10-08T08:29:04;20.17;;;18.98;;
70026;SDS011;57506;50.092;15.804;2023-10-08T08:31:34;21.05;;;19.75;;
70026;SDS011;57506;50.092;15.804;2023-10-08T08:34:01;20.63;;;19.33;;
70026;SDS011;57506;50.092;15.804;2023-10-08T08:36:33;20.70;;;19.40;;
70026;SDS011;57506;50.092;15.804;2023-10-08T08:39:03;19.67;;;18.48;;
70026;SDS011;57506;50.092;15.804;2023-10-08T08:41:30;20.50;;;19.20;;
70026;SDS011;57506;50.092;15.804;2023-10-08T08:43:55;21.27;;;19.97;;
70026;SDS011;57506;50.092;15.804;2023-10-08T08:46:36;21.30;;;20.00;;
70026;SDS011;57506;50.092;15.804;2023-10-08T08:49:04;20.63;;;19.33;;
70026;SDS011;57506;50.092;15.804;2023-10-08T08:51:32;20.63;;;19.33;;
70026;SDS011;57506;50.092;15.804;2023-10-08T08:54:00;20.63;;;19.33;;
70026;SDS011;57506;50.092;15.804;2023-10-08T08:56:31;20.83;;;19.53;;
70026;SDS011;57506;50.092;15.804;2023-10-08T08:58:59;21.05;;;19.75;;
70026;SDS011;57506;50.092;15.804;2023-10-08T09:01:25;20.60;;;19.30;;
70026;SDS011;57506;50.092;15.804;2023-10-08T09:03:52;20.75;;;19.45;;
70026;SDS011;57506;50.092;15.804;2023-10-08T09:06:26;20.55;;;19.27;;
70026;SDS011;57506;50.092;15.804;2023-10-08T09:08:52;21.50;;;20.20;;
70026;SDS011;57506;50.092;15.804;2023-10-08T09:11:20;20.55;;;19.27;;
70026;SDS011;57506;50.092;15.804;2023-10-08T09:13:46;20.75;;;19.45;;
70026;SDS011;57506;50.092;15.804;2023-10-08T09:16:13;21.33;;;20.02;;
70026;SDS011;57506;50.092;15.804;2023-10-08T09:18:58;20.30;;;19.10;;
70026;SDS011;57506;50.092;15.804;2023-10-08T09:21:23;20.15;;;18.95;;
70026;SDS011;57506;50.092;15.804;2023-10-08T09:23:49;20.20;;;19.00;;
70026;SDS011;57506;50.092;15.804;2023-10-08T09:26:18;19.43;;;18.23;;
70026;SDS011;57506;50.092;15.804;2023-10-08T09:28:48;20.70;;;19.40;;
70026;SDS011;57506;50.092;15.804;2023-10-08T09:31:16;20.77;;;19.48;;
70026;SDS011;57506;50.092;15.804;2023-10-08T09:33:43;20.42;;;19.20;;
70026;SDS011;57506;50.092;15.804;2023-10-08T09:36:18;20.50;;;19.20;;
70026;SDS011;57506;50.092;15.804;2023-10-08T09:38:45;20.73;;;19.43;;
70026;SDS011;57506;50.092;15.804;2023-10-08T09:41:14;20.92;;;19.52;;
70026;SDS011;57506;50.092;15.804;2023-10-08T09:43:40;21.20;;;19.90;;
70026;SDS011;57506;50.092;15.804;2023-10-08T09:46:17;21.10;;;19.70;;
70026;SDS011;57506;50.092;15.804;2023-10-08T09:48:50;21.85;;;20.30;;
70026;SDS011;57506;50.092;15.804;2023-10-08T09:51:20;22.13;;;20.63;;
70026;SDS011;57506;50.092;15.804;2023-10-08T09:53:52;20.92;;;19.63;;
70026;SDS011;57506;50.092;15.804;2023-10-08T09:56:35;21.33;;;19.92;;
70026;SDS011;57506;50.092;15.804;2023-10-08T09:59:02;20.83;;;19.52;;
70026;SDS011;57506;50.092;15.804;2023-10-08T10:01:30;21.40;;;20.10;;
70026;SDS011;57506;50.092;15.804;2023-10-08T10:03:57;20.85;;;19.45;;
70026;SDS011;57506;50.092;15.804;2023-10-08T10:06:26;20.98;;;19.45;;
70026;SDS011;57506;50.092;15.804;2023-10-08T10:08:55;21.25;;;19.95;;
70026;SDS011;57506;50.092;15.804;2023-10-08T10:11:30;20.92;;;19.63;;
70026;SDS011;57506;50.092;15.804;2023-10-08T10:13:59;21.50;;;20.17;;
70026;SDS011;57506;50.092;15.804;2023-10-08T10:16:26;21.25;;;19.80;;
70026;SDS011;57506;50.092;15.804;2023-10-08T10:18:56;20.08;;;18.80;;
70026;SDS011;57506;50.092;15.804;2023-10-08T10:23:52;21.60;;;20.30;;
70026;SDS011;57506;50.092;15.804;2023-10-08T10:26:35;19.87;;;18.57;;
70026;SDS011;57506;50.092;15.804;2023-10-08T10:32:00;21.40;;;20.10;;
70026;SDS011;57506;50.092;15.804;2023-10-08T10:34:27;22.25;;;20.75;;
70026;SDS011;57506;50.092;15.804;2023-10-08T10:36:53;22.13;;;20.73;;
70026;SDS011;57506;50.092;15.804;2023-10-08T10:39:42;22.17;;;20.77;;
70026;SDS011;57506;50.092;15.804;2023-10-08T10:42:07;22.30;;;20.80;;
70026;SDS011;57506;50.092;15.804;2023-10-08T10:44:45;22.20;;;20.70;;
70026;SDS011;57506;50.092;15.804;2023-10-08T10:47:15;22.80;;;21.30;;
70026;SDS011;57506;50.092;15.804;2023-10-08T10:49:43;21.88;;;20.58;;
70026;SDS011;57506;50.092;15.804;2023-10-08T10:52:16;21.45;;;19.98;;
70026;SDS011;57506;50.092;15.804;2023-10-08T10:55:02;22.67;;;21.02;;
70026;SDS011;57506;50.092;15.804;2023-10-08T10:57:42;21.75;;;20.35;;
70026;SDS011;57506;50.092;15.804;2023-10-08T11:00:38;22.97;;;21.27;;
70026;SDS011;57506;50.092;15.804;2023-10-08T11:03:07;21.42;;;20.13;;
70026;SDS011;57506;50.092;15.804;2023-10-08T11:05:57;22.40;;;21.00;;
70026;SDS011;57506;50.092;15.804;2023-10-08T11:08:31;21.63;;;20.20;;
70026;SDS011;57506;50.092;15.804;2023-10-08T11:11:00;22.40;;;21.00;;
70026;SDS011;57506;50.092;15.804;2023-10-08T11:13:32;23.17;;;21.17;;
70026;SDS011;57506;50.092;15.804;2023-10-08T11:16:06;22.23;;;20.73;;
70026;SDS011;57506;50.092;15.804;2023-10-08T11:18:34;21.35;;;20.05;;
70026;SDS011;57506;50.092;15.804;2023-10-08T11:21:06;22.73;;;20.38;;
70026;SDS011;57506;50.092;15.804;2023-10-08T11:23:44;22.27;;;20.67;;
70026;SDS011;57506;50.092;15.804;2023-10-08T11:26:18;23.37;;;21.40;;
70026;SDS011;57506;50.092;15.804;2023-10-08T11:28:47;23.58;;;21.55;;
70026;SDS011;57506;50.092;15.804;2023-10-08T11:31:14;22.73;;;21.23;;
70026;SDS011;57506;50.092;15.804;2023-10-08T11:33:44;21.92;;;20.35;;
70026;SDS011;57506;50.092;15.804;2023-10-08T11:36:20;21.17;;;19.80;;
70026;SDS011;57506;50.092;15.804;2023-10-08T11:38:53;22.07;;;20.67;;
70026;SDS011;57506;50.092;15.804;2023-10-08T11:41:26;21.55;;;20.20;;
70026;SDS011;57506;50.092;15.804;2023-10-08T11:43:56;22.98;;;21.13;;
70026;SDS011;57506;50.092;15.804;2023-10-08T11:46:23;23.17;;;21.58;;
70026;SDS011;57506;50.092;15.804;2023-10-08T11:48:53;22.48;;;21.00;;
70026;SDS011;57506;50.092;15.804;2023-10-08T11:51:23;23.00;;;21.47;;
70026;SDS011;57506;50.092;15.804;2023-10-08T11:53:49;21.70;;;20.40;;
70026;SDS011;57506;50.092;15.804;2023-10-08T11:56:16;22.15;;;20.63;;
70026;SDS011;57506;50.092;15.804;2023-10-08T11:58:43;21.75;;;20.45;;
70026;SDS011;57506;50.092;15.804;2023-10-08T12:01:12;23.25;;;21.73;;
70026;SDS011;57506;50.092;15.804;2023-10-08T12:03:43;21.23;;;19.93;;
70026;SDS011;57506;50.092;15.804;2023-10-08T12:06:15;21.48;;;20.17;;
70026;SDS011;57506;50.092;15.804;2023-10-08T12:08:47;22.50;;;21.10;;
70026;SDS011;57506;50.092;15.804;2023-10-08T12:11:18;22.90;;;21.38;;
70026;SDS011;57506;50.092;15.804;2023-10-08T12:13:48;22.92;;;21.42;;
70026;SDS011;57506;50.092;15.804;2023-10-08T12:16:15;22.27;;;20.93;;
70026;SDS011;57506;50.092;15.804;2023-10-08T12:18:46;22.35;;;20.95;;
70026;SDS011;57506;50.092;15.804;2023-10-08T12:21:23;21.73;;;20.42;;
70026;SDS011;57506;50.092;15.804;2023-10-08T12:23:59;22.67;;;21.27;;
70026;SDS011;57506;50.092;15.804;2023-10-08T12:26:27;22.15;;;20.75;;
70026;SDS011;57506;50.092;15.804;2023-10-08T12:28:53;23.03;;;21.63;;
70026;SDS011;57506;50.092;15.804;2023-10-08T12:31:19;22.63;;;21.23;;
70026;SDS011;57506;50.092;15.804;2023-10-08T12:33:52;24.42;;;22.58;;
70026;SDS011;57506;50.092;15.804;2023-10-08T12:36:28;21.63;;;20.13;;
70026;SDS011;57506;50.092;15.804;2023-10-08T12:38:58;22.88;;;21.38;;
70026;SDS011;57506;50.092;15.804;2023-10-08T12:41:24;23.80;;;22.20;;
70026;SDS011;57506;50.092;15.804;2023-10-08T12:43:52;23.13;;;21.52;;
70026;SDS011;57506;50.092;15.804;2023-10-08T12:46:19;22.08;;;20.73;;
70026;SDS011;57506;50.092;15.804;2023-10-08T12:48:56;21.17;;;19.87;;
70026;SDS011;57506;50.092;15.804;2023-10-08T12:51:22;22.30;;;20.80;;
70026;SDS011;57506;50.092;15.804;2023-10-08T12:53:49;22.50;;;21.10;;
70026;SDS011;57506;50.092;15.804;2023-10-08T12:56:38;23.17;;;21.67;;
70026;SDS011;57506;50.092;15.804;2023-10-08T12:59:09;24.47;;;22.87;;
70026;SDS011;57506;50.092;15.804;2023-10-08T13:01:45;23.73;;;22.13;;
70026;SDS011;57506;50.092;15.804;2023-10-08T13:04:15;23.95;;;22.35;;
70026;SDS011;57506;50.092;15.804;2023-10-08T13:06:46;24.17;;;22.48;;
70026;SDS011;57506;50.092;15.804;2023-10-08T13:09:12;22.83;;;21.33;;
70026;SDS011;57506;50.092;15.804;2023-10-08T13:11:41;23.13;;;21.70;;
70026;SDS011;57506;50.092;15.804;2023-10-08T13:14:08;24.05;;;22.13;;
70026;SDS011;57506;50.092;15.804;2023-10-08T13:16:33;23.85;;;22.10;;
70026;SDS011;57506;50.092;15.804;2023-10-08T13:19:02;23.65;;;22.02;;
70026;SDS011;57506;50.092;15.804;2023-10-08T13:21:29;22.80;;;21.10;;
70026;SDS011;57506;50.092;15.804;2023-10-08T13:23:56;22.65;;;21.15;;
70026;SDS011;57506;50.092;15.804;2023-10-08T13:26:22;23.35;;;21.85;;
70026;SDS011;57506;50.092;15.804;2023-10-08T13:28:50;22.73;;;21.23;;
70026;SDS011;57506;50.092;15.804;2023-10-08T13:31:16;22.47;;;21.07;;
70026;SDS011;57506;50.092;15.804;2023-10-08T13:33:44;22.15;;;20.75;;
70026;SDS011;57506;50.092;15.804;2023-10-08T13:36:16;22.83;;;21.15;;
70026;SDS011;57506;50.092;15.804;2023-10-08T13:38:42;22.30;;;20.90;;
70026;SDS011;57506;50.092;15.804;2023-10-08T13:41:08;23.27;;;21.67;;
70026;SDS011;57506;50.092;15.804;2023-10-08T13:43:40;22.10;;;20.70;;
70026;SDS011;57506;50.092;15.804;2023-10-08T13:46:16;22.05;;;20.60;;
70026;SDS011;57506;50.092;15.804;2023-10-08T13:48:44;23.58;;;21.70;;
70026;SDS011;57506;50.092;15.804;2023-10-08T13:51:17;22.77;;;21.27;;
70026;SDS011;57506;50.092;15.804;2023-10-08T13:53:51;23.40;;;21.88;;
70026;SDS011;57506;50.092;15.804;2023-10-08T13:56:18;22.23;;;20.83;;
70026;SDS011;57506;50.092;15.804;2023-10-08T13:58:46;22.30;;;20.90;;
70026;SDS011;57506;50.092;15.804;2023-10-08T14:01:14;23.77;;;22.08;;
70026;SDS011;57506;50.092;15.804;2023-10-08T14:06:21;23.08;;;21.60;;
70026;SDS011;57506;50.092;15.804;2023-10-08T14:08:47;22.70;;;21.30;;
70026;SDS011;57506;50.092;15.804;2023-10-08T14:11:20;21.92;;;20.52;;
70026;SDS011;57506;50.092;15.804;2023-10-08T14:13:50;22.98;;;21.45;;
70026;SDS011;57506;50.092;15.804;2023-10-08T14:16:16;24.17;;;21.77;;
70026;SDS011;57506;50.092;15.804;2023-10-08T14:18:43;22.73;;;21.15;;
70026;SDS011;57506;50.092;15.804;2023-10-08T14:21:15;23.03;;;21.33;;
70026;SDS011;57506;50.092;15.804;2023-10-08T14:23:43;21.98;;;20.58;;
70026;SDS011;57506;50.092;15.804;2023-10-08T14:26:08;23.58;;;22.08;;
70026;SDS011;57506;50.092;15.804;2023-10-08T14:28:35;23.27;;;21.77;;
70026;SDS011;57506;50.092;15.804;2023-10-08T14:31:18;22.95;;;21.40;;
70026;SDS011;57506;50.092;15.804;2023-10-08T14:33:47;23.60;;;21.80;;
70026;SDS011;57506;50.092;15.804;2023-10-08T14:36:44;25.52;;;23.50;;
70026;SDS011;57506;50.092;15.804;2023-10-08T14:39:29;22.38;;;20.98;;
70026;SDS011;57506;50.092;15.804;2023-10-08T14:42:13;22.33;;;20.70;;
70026;SDS011;57506;50.092;15.804;2023-10-08T14:44:57;23.70;;;22.20;;
70026;SDS011;57506;50.092;15.804;2023-10-08T14:47:23;22.75;;;21.20;;
70026;SDS011;57506;50.092;15.804;2023-10-08T14:49:49;23.10;;;21.70;;
70026;SDS011;57506;50.092;15.804;2023-10-08T14:52:14;23.08;;;21.58;;